sensor_id;sensor_type;location;lat;lon;timestamp;temperature;humidity
10660;DHT22;5378;53.206;13.316;2023-04-03T00:00:54;1.00;99.90
10660;DHT22;5378;53.206;13.316;2023-04-03T00:03:42;0.90;99.90
10660;DHT22;5378;53.206;13.316;2023-04-03T00:06:29;0.90;99.90
10660;DHT22;5378;53.206;13.316;2023-04-03T00:09:17;0.90;99.90
10660;DHT22;5378;53.206;13.316;2023-04-03T00:12:04;0.90;99.90
10660;DHT22;5378;53.206;13.316;2023-04-03T00:14:51;0.90;99.90
10660;DHT22;5378;53.206;13.316;2023-04-03T00:17:38;0.80;99.90
10660;DHT22;5378;53.206;13.316;2023-04-03T00:20:25;0.80;99.90
10660;DHT22;5378;53.206;13.316;2023-04-03T00:23:13;0.70;99.90
10660;DHT22;5378;53.206;13.316;2023-04-03T00:26:01;0.80;99.90
10660;DHT22;5378;53.206;13.316;2023-04-03T00:33:51;0.70;99.90
10660;DHT22;5378;53.206;13.316;2023-04-03T00:37:17;0.80;99.90
10660;DHT22;5378;53.206;13.316;2023-04-03T00:40:06;0.70;99.90
10660;DHT22;5378;53.206;13.316;2023-04-03T00:47:49;0.60;99.90
10660;DHT22;5378;53.206;13.316;2023-04-03T00:54:07;0.60;99.90
10660;DHT22;5378;53.206;13.316;2023-04-03T00:56:55;0.60;99.90
10660;DHT22;5378;53.206;13.316;2023-04-03T00:59:48;0.50;99.90
10660;DHT22;5378;53.206;13.316;2023-04-03T01:02:35;0.50;99.90
10660;DHT22;5378;53.206;13.316;2023-04-03T01:05:25;0.50;99.90
10660;DHT22;5378;53.206;13.316;2023-04-03T01:08:12;0.50;99.90
10660;DHT22;5378;53.206;13.316;2023-04-03T01:10:59;0.60;99.90
10660;DHT22;5378;53.206;13.316;2023-04-03T01:13:47;0.50;99.90
10660;DHT22;5378;53.206;13.316;2023-04-03T01:16:35;0.60;99.90
10660;DHT22;5378;53.206;13.316;2023-04-03T01:19:22;0.50;99.90
10660;DHT22;5378;53.206;13.316;2023-04-03T01:22:15;0.40;99.90
10660;DHT22;5378;53.206;13.316;2023-04-03T01:25:05;0.40;99.90
10660;DHT22;5378;53.206;13.316;2023-04-03T01:27:52;0.30;99.90
10660;DHT22;5378;53.206;13.316;2023-04-03T01:30:43;0.20;99.90
10660;DHT22;5378;53.206;13.316;2023-04-03T01:33:32;0.30;99.90
10660;DHT22;5378;53.206;13.316;2023-04-03T01:36:22;0.30;99.90
10660;DHT22;5378;53.206;13.316;2023-04-03T01:39:10;0.10;99.90
10660;DHT22;5378;53.206;13.316;2023-04-03T01:41:57;0.30;99.90
10660;DHT22;5378;53.206;13.316;2023-04-03T01:44:49;0.30;99.90
10660;DHT22;5378;53.206;13.316;2023-04-03T01:47:35;0.30;99.90
10660;DHT22;5378;53.206;13.316;2023-04-03T01:50:25;0.30;99.90
10660;DHT22;5378;53.206;13.316;2023-04-03T01:53:12;0.40;99.90
10660;DHT22;5378;53.206;13.316;2023-04-03T01:55:59;0.50;99.90
10660;DHT22;5378;53.206;13.316;2023-04-03T01:58:48;0.30;99.90
10660;DHT22;5378;53.206;13.316;2023-04-03T02:01:35;0.30;99.90
10660;DHT22;5378;53.206;13.316;2023-04-03T02:04:22;0.30;99.90
10660;DHT22;5378;53.206;13.316;2023-04-03T02:07:11;0.30;99.90
10660;DHT22;5378;53.206;13.316;2023-04-03T02:09:58;0.30;99.90
10660;DHT22;5378;53.206;13.316;2023-04-03T02:12:45;0.30;99.90
10660;DHT22;5378;53.206;13.316;2023-04-03T02:15:32;0.30;99.90
10660;DHT22;5378;53.206;13.316;2023-04-03T02:18:40;0.20;99.90
10660;DHT22;5378;53.206;13.316;2023-04-03T02:21:28;0.30;99.90
10660;DHT22;5378;53.206;13.316;2023-04-03T02:24:16;0.40;99.90
10660;DHT22;5378;53.206;13.316;2023-04-03T02:27:03;0.30;99.90
10660;DHT22;5378;53.206;13.316;2023-04-03T02:29:50;0.40;99.90
10660;DHT22;5378;53.206;13.316;2023-04-03T02:32:37;0.40;99.90
10660;DHT22;5378;53.206;13.316;2023-04-03T02:35:23;0.40;99.90
10660;DHT22;5378;53.206;13.316;2023-04-03T02:38:12;0.40;99.90
10660;DHT22;5378;53.206;13.316;2023-04-03T02:41:01;0.40;99.90
10660;DHT22;5378;53.206;13.316;2023-04-03T02:43:49;0.60;99.90
10660;DHT22;5378;53.206;13.316;2023-04-03T02:46:36;0.70;99.90
10660;DHT22;5378;53.206;13.316;2023-04-03T02:49:23;0.60;99.90
10660;DHT22;5378;53.206;13.316;2023-04-03T02:52:10;0.60;99.90
10660;DHT22;5378;53.206;13.316;2023-04-03T02:54:56;0.60;99.90
10660;DHT22;5378;53.206;13.316;2023-04-03T02:57:45;0.50;99.90
10660;DHT22;5378;53.206;13.316;2023-04-03T03:00:32;0.50;99.90
10660;DHT22;5378;53.206;13.316;2023-04-03T03:03:20;0.30;99.90
10660;DHT22;5378;53.206;13.316;2023-04-03T03:06:08;0.30;99.90
10660;DHT22;5378;53.206;13.316;2023-04-03T03:08:56;0.40;99.90
10660;DHT22;5378;53.206;13.316;2023-04-03T03:11:44;0.40;99.90
10660;DHT22;5378;53.206;13.316;2023-04-03T03:14:32;0.60;99.90
10660;DHT22;5378;53.206;13.316;2023-04-03T03:17:19;0.60;99.90
10660;DHT22;5378;53.206;13.316;2023-04-03T03:20:07;0.80;99.90
10660;DHT22;5378;53.206;13.316;2023-04-03T03:22:54;1.00;99.90
10660;DHT22;5378;53.206;13.316;2023-04-03T03:25:41;1.10;99.90
10660;DHT22;5378;53.206;13.316;2023-04-03T03:28:28;1.10;99.90
10660;DHT22;5378;53.206;13.316;2023-04-03T03:31:17;1.30;99.90
10660;DHT22;5378;53.206;13.316;2023-04-03T03:34:04;1.40;99.90
10660;DHT22;5378;53.206;13.316;2023-04-03T03:36:51;1.50;99.90
10660;DHT22;5378;53.206;13.316;2023-04-03T03:39:38;1.50;99.90
10660;DHT22;5378;53.206;13.316;2023-04-03T03:42:25;1.60;99.90
10660;DHT22;5378;53.206;13.316;2023-04-03T03:45:12;1.40;99.90
10660;DHT22;5378;53.206;13.316;2023-04-03T03:48:01;1.40;99.90
10660;DHT22;5378;53.206;13.316;2023-04-03T03:50:49;1.50;99.90
10660;DHT22;5378;53.206;13.316;2023-04-03T03:53:38;1.30;99.90
10660;DHT22;5378;53.206;13.316;2023-04-03T03:56:31;1.20;99.90
10660;DHT22;5378;53.206;13.316;2023-04-03T03:59:19;1.20;99.90
10660;DHT22;5378;53.206;13.316;2023-04-03T04:02:06;1.30;99.90
10660;DHT22;5378;53.206;13.316;2023-04-03T04:04:54;1.20;99.90
10660;DHT22;5378;53.206;13.316;2023-04-03T04:07:41;1.20;99.90
10660;DHT22;5378;53.206;13.316;2023-04-03T04:10:29;1.20;99.90
10660;DHT22;5378;53.206;13.316;2023-04-03T04:13:17;1.30;99.90
10660;DHT22;5378;53.206;13.316;2023-04-03T04:16:05;1.40;99.90
10660;DHT22;5378;53.206;13.316;2023-04-03T04:18:52;1.30;99.90
10660;DHT22;5378;53.206;13.316;2023-04-03T04:21:42;1.30;99.90
10660;DHT22;5378;53.206;13.316;2023-04-03T04:24:29;1.20;99.90
10660;DHT22;5378;53.206;13.316;2023-04-03T04:27:17;1.10;99.90
10660;DHT22;5378;53.206;13.316;2023-04-03T04:30:06;1.20;99.90
10660;DHT22;5378;53.206;13.316;2023-04-03T04:32:55;1.30;99.90
10660;DHT22;5378;53.206;13.316;2023-04-03T04:35:42;1.50;99.90
10660;DHT22;5378;53.206;13.316;2023-04-03T04:38:31;1.60;99.90
10660;DHT22;5378;53.206;13.316;2023-04-03T04:41:19;1.50;99.90
10660;DHT22;5378;53.206;13.316;2023-04-03T04:44:09;1.50;99.90
10660;DHT22;5378;53.206;13.316;2023-04-03T04:46:57;1.50;99.90
10660;DHT22;5378;53.206;13.316;2023-04-03T04:49:44;1.60;99.90
10660;DHT22;5378;53.206;13.316;2023-04-03T04:52:34;1.70;99.90
10660;DHT22;5378;53.206;13.316;2023-04-03T04:55:22;1.80;99.90
10660;DHT22;5378;53.206;13.316;2023-04-03T04:58:09;1.80;99.90
10660;DHT22;5378;53.206;13.316;2023-04-03T05:00:59;1.90;99.90
10660;DHT22;5378;53.206;13.316;2023-04-03T05:03:48;2.00;99.90
10660;DHT22;5378;53.206;13.316;2023-04-03T05:06:36;1.90;99.90
10660;DHT22;5378;53.206;13.316;2023-04-03T05:09:29;1.70;99.90
10660;DHT22;5378;53.206;13.316;2023-04-03T05:12:17;1.60;99.90
10660;DHT22;5378;53.206;13.316;2023-04-03T05:15:11;1.40;99.90
10660;DHT22;5378;53.206;13.316;2023-04-03T05:17:59;1.40;99.90
10660;DHT22;5378;53.206;13.316;2023-04-03T05:20:48;1.40;99.90
10660;DHT22;5378;53.206;13.316;2023-04-03T05:23:36;1.40;99.90
10660;DHT22;5378;53.206;13.316;2023-04-03T05:26:25;1.50;99.90
10660;DHT22;5378;53.206;13.316;2023-04-03T05:29:14;1.60;99.90
10660;DHT22;5378;53.206;13.316;2023-04-03T05:32:01;1.70;99.90
10660;DHT22;5378;53.206;13.316;2023-04-03T05:34:49;1.60;99.90
10660;DHT22;5378;53.206;13.316;2023-04-03T05:37:37;1.80;99.90
10660;DHT22;5378;53.206;13.316;2023-04-03T05:40:24;1.90;99.90
10660;DHT22;5378;53.206;13.316;2023-04-03T05:43:14;2.10;99.90
10660;DHT22;5378;53.206;13.316;2023-04-03T05:46:04;2.20;99.90
10660;DHT22;5378;53.206;13.316;2023-04-03T05:48:53;2.30;99.90
10660;DHT22;5378;53.206;13.316;2023-04-03T05:51:44;2.50;99.90
10660;DHT22;5378;53.206;13.316;2023-04-03T05:54:40;2.80;99.90
10660;DHT22;5378;53.206;13.316;2023-04-03T05:57:33;2.90;99.90
10660;DHT22;5378;53.206;13.316;2023-04-03T06:00:20;3.30;99.90
10660;DHT22;5378;53.206;13.316;2023-04-03T06:03:18;3.90;99.90
10660;DHT22;5378;53.206;13.316;2023-04-03T06:06:06;4.80;99.90
10660;DHT22;5378;53.206;13.316;2023-04-03T06:08:54;5.80;99.90
10660;DHT22;5378;53.206;13.316;2023-04-03T06:11:41;5.90;99.90
10660;DHT22;5378;53.206;13.316;2023-04-03T06:14:28;5.80;99.90
10660;DHT22;5378;53.206;13.316;2023-04-03T06:17:16;5.60;99.90
10660;DHT22;5378;53.206;13.316;2023-04-03T06:20:06;5.40;99.90
10660;DHT22;5378;53.206;13.316;2023-04-03T06:22:55;5.30;99.90
10660;DHT22;5378;53.206;13.316;2023-04-03T06:25:42;5.20;99.90
10660;DHT22;5378;53.206;13.316;2023-04-03T06:28:29;6.10;99.90
10660;DHT22;5378;53.206;13.316;2023-04-03T06:31:16;8.00;99.90
10660;DHT22;5378;53.206;13.316;2023-04-03T06:34:06;8.60;99.90
10660;DHT22;5378;53.206;13.316;2023-04-03T06:36:55;8.70;99.90
10660;DHT22;5378;53.206;13.316;2023-04-03T06:39:42;9.50;99.90
10660;DHT22;5378;53.206;13.316;2023-04-03T06:42:29;10.30;99.90
10660;DHT22;5378;53.206;13.316;2023-04-03T06:45:24;10.40;99.90
10660;DHT22;5378;53.206;13.316;2023-04-03T06:48:12;9.90;99.90
10660;DHT22;5378;53.206;13.316;2023-04-03T06:50:59;10.30;99.90
10660;DHT22;5378;53.206;13.316;2023-04-03T06:53:48;10.00;99.90
10660;DHT22;5378;53.206;13.316;2023-04-03T06:56:35;9.20;99.90
10660;DHT22;5378;53.206;13.316;2023-04-03T06:59:22;7.50;99.90
10660;DHT22;5378;53.206;13.316;2023-04-03T07:02:11;6.30;99.90
10660;DHT22;5378;53.206;13.316;2023-04-03T07:04:59;5.80;99.90
10660;DHT22;5378;53.206;13.316;2023-04-03T07:07:46;5.10;99.90
10660;DHT22;5378;53.206;13.316;2023-04-03T07:10:34;4.70;99.90
10660;DHT22;5378;53.206;13.316;2023-04-03T07:13:21;4.30;99.90
10660;DHT22;5378;53.206;13.316;2023-04-03T07:16:09;3.80;99.90
10660;DHT22;5378;53.206;13.316;2023-04-03T07:18:57;3.80;99.90
10660;DHT22;5378;53.206;13.316;2023-04-03T07:21:44;3.60;99.90
10660;DHT22;5378;53.206;13.316;2023-04-03T07:24:31;3.50;99.90
10660;DHT22;5378;53.206;13.316;2023-04-03T07:27:19;3.70;99.90
10660;DHT22;5378;53.206;13.316;2023-04-03T07:30:07;4.20;99.90
10660;DHT22;5378;53.206;13.316;2023-04-03T07:32:55;4.40;99.90
10660;DHT22;5378;53.206;13.316;2023-04-03T07:35:43;5.00;99.90
10660;DHT22;5378;53.206;13.316;2023-04-03T07:38:30;4.80;99.90
10660;DHT22;5378;53.206;13.316;2023-04-03T07:41:18;4.10;99.90
10660;DHT22;5378;53.206;13.316;2023-04-03T07:44:09;3.90;99.90
10660;DHT22;5378;53.206;13.316;2023-04-03T07:46:56;3.80;99.90
10660;DHT22;5378;53.206;13.316;2023-04-03T07:49:43;3.70;99.90
10660;DHT22;5378;53.206;13.316;2023-04-03T07:52:30;3.60;99.90
10660;DHT22;5378;53.206;13.316;2023-04-03T07:55:17;3.70;99.90
10660;DHT22;5378;53.206;13.316;2023-04-03T07:58:04;3.60;99.90
10660;DHT22;5378;53.206;13.316;2023-04-03T08:00:53;4.20;99.90
10660;DHT22;5378;53.206;13.316;2023-04-03T08:03:40;5.00;99.90
10660;DHT22;5378;53.206;13.316;2023-04-03T08:06:27;4.80;99.90
10660;DHT22;5378;53.206;13.316;2023-04-03T08:09:22;5.40;99.90
10660;DHT22;5378;53.206;13.316;2023-04-03T08:12:09;5.70;99.90
10660;DHT22;5378;53.206;13.316;2023-04-03T08:14:59;5.20;99.90
10660;DHT22;5378;53.206;13.316;2023-04-03T08:17:47;4.70;99.90
10660;DHT22;5378;53.206;13.316;2023-04-03T08:20:35;4.30;99.90
10660;DHT22;5378;53.206;13.316;2023-04-03T08:23:21;4.10;99.90
10660;DHT22;5378;53.206;13.316;2023-04-03T08:26:10;4.30;99.90
10660;DHT22;5378;53.206;13.316;2023-04-03T08:28:57;4.10;99.90
10660;DHT22;5378;53.206;13.316;2023-04-03T08:31:43;4.20;99.90
10660;DHT22;5378;53.206;13.316;2023-04-03T08:34:32;4.10;99.90
10660;DHT22;5378;53.206;13.316;2023-04-03T08:37:20;3.90;99.90
10660;DHT22;5378;53.206;13.316;2023-04-03T08:40:11;3.80;99.90
10660;DHT22;5378;53.206;13.316;2023-04-03T08:43:08;3.80;99.90
10660;DHT22;5378;53.206;13.316;2023-04-03T08:46:05;4.00;99.90
10660;DHT22;5378;53.206;13.316;2023-04-03T08:48:56;3.80;99.90
10660;DHT22;5378;53.206;13.316;2023-04-03T08:51:48;3.90;99.90
10660;DHT22;5378;53.206;13.316;2023-04-03T08:54:46;4.20;99.90
10660;DHT22;5378;53.206;13.316;2023-04-03T08:57:36;4.20;99.90
10660;DHT22;5378;53.206;13.316;2023-04-03T09:00:28;4.00;99.90
10660;DHT22;5378;53.206;13.316;2023-04-03T09:03:18;4.10;99.90
10660;DHT22;5378;53.206;13.316;2023-04-03T09:06:12;4.00;99.90
10660;DHT22;5378;53.206;13.316;2023-04-03T09:09:11;3.90;99.90
10660;DHT22;5378;53.206;13.316;2023-04-03T09:12:05;3.90;99.90
10660;DHT22;5378;53.206;13.316;2023-04-03T09:15:01;3.80;99.90
10660;DHT22;5378;53.206;13.316;2023-04-03T09:17:59;3.80;99.90
10660;DHT22;5378;53.206;13.316;2023-04-03T09:20:55;3.70;99.90
10660;DHT22;5378;53.206;13.316;2023-04-03T09:23:46;3.80;99.90
10660;DHT22;5378;53.206;13.316;2023-04-03T09:26:41;4.00;99.90
10660;DHT22;5378;53.206;13.316;2023-04-03T09:29:30;4.30;99.90
10660;DHT22;5378;53.206;13.316;2023-04-03T09:32:22;4.40;99.90
10660;DHT22;5378;53.206;13.316;2023-04-03T09:35:19;4.50;99.90
10660;DHT22;5378;53.206;13.316;2023-04-03T09:38:18;4.70;99.90
10660;DHT22;5378;53.206;13.316;2023-04-03T09:41:06;4.90;99.90
10660;DHT22;5378;53.206;13.316;2023-04-03T09:43:55;4.90;99.90
10660;DHT22;5378;53.206;13.316;2023-04-03T09:46:42;4.90;99.90
10660;DHT22;5378;53.206;13.316;2023-04-03T09:49:29;4.90;99.90
10660;DHT22;5378;53.206;13.316;2023-04-03T09:52:23;4.80;99.90
10660;DHT22;5378;53.206;13.316;2023-04-03T09:55:15;4.60;99.90
10660;DHT22;5378;53.206;13.316;2023-04-03T09:58:05;4.60;99.90
10660;DHT22;5378;53.206;13.316;2023-04-03T10:01:23;4.50;99.90
10660;DHT22;5378;53.206;13.316;2023-04-03T10:04:12;5.00;99.90
10660;DHT22;5378;53.206;13.316;2023-04-03T10:06:59;5.40;99.90
10660;DHT22;5378;53.206;13.316;2023-04-03T10:09:54;5.40;99.90
10660;DHT22;5378;53.206;13.316;2023-04-03T10:12:41;5.40;99.90
10660;DHT22;5378;53.206;13.316;2023-04-03T10:15:32;5.50;99.90
10660;DHT22;5378;53.206;13.316;2023-04-03T10:18:32;5.50;99.90
10660;DHT22;5378;53.206;13.316;2023-04-03T10:21:29;5.70;99.90
10660;DHT22;5378;53.206;13.316;2023-04-03T10:24:23;5.90;99.90
10660;DHT22;5378;53.206;13.316;2023-04-03T10:27:16;5.40;99.90
10660;DHT22;5378;53.206;13.316;2023-04-03T10:30:20;5.10;99.90
10660;DHT22;5378;53.206;13.316;2023-04-03T10:33:39;5.30;99.90
10660;DHT22;5378;53.206;13.316;2023-04-03T10:36:37;5.20;99.90
10660;DHT22;5378;53.206;13.316;2023-04-03T10:39:30;5.10;99.90
10660;DHT22;5378;53.206;13.316;2023-04-03T10:42:27;5.00;99.90
10660;DHT22;5378;53.206;13.316;2023-04-03T10:45:21;5.20;99.90
10660;DHT22;5378;53.206;13.316;2023-04-03T10:48:16;5.30;99.90
10660;DHT22;5378;53.206;13.316;2023-04-03T10:51:22;5.30;99.90
10660;DHT22;5378;53.206;13.316;2023-04-03T10:54:13;5.30;99.90
10660;DHT22;5378;53.206;13.316;2023-04-03T10:57:04;5.00;99.90
10660;DHT22;5378;53.206;13.316;2023-04-03T10:59:59;4.90;99.90
10660;DHT22;5378;53.206;13.316;2023-04-03T11:07:43;5.10;99.90
10660;DHT22;5378;53.206;13.316;2023-04-03T11:10:40;5.20;99.90
10660;DHT22;5378;53.206;13.316;2023-04-03T11:13:32;5.30;99.90
10660;DHT22;5378;53.206;13.316;2023-04-03T11:16:24;5.20;99.90
10660;DHT22;5378;53.206;13.316;2023-04-03T11:19:18;5.20;99.90
10660;DHT22;5378;53.206;13.316;2023-04-03T11:22:16;5.30;99.90
10660;DHT22;5378;53.206;13.316;2023-04-03T11:25:17;5.40;99.90
10660;DHT22;5378;53.206;13.316;2023-04-03T11:28:12;5.20;99.90
10660;DHT22;5378;53.206;13.316;2023-04-03T11:31:09;5.20;99.90
10660;DHT22;5378;53.206;13.316;2023-04-03T11:34:05;5.00;99.90
10660;DHT22;5378;53.206;13.316;2023-04-03T11:36:56;5.00;99.90
10660;DHT22;5378;53.206;13.316;2023-04-03T11:39:51;5.00;99.90
10660;DHT22;5378;53.206;13.316;2023-04-03T11:42:46;5.00;99.90
10660;DHT22;5378;53.206;13.316;2023-04-03T11:45:36;4.90;99.90
10660;DHT22;5378;53.206;13.316;2023-04-03T11:48:51;4.90;99.90
10660;DHT22;5378;53.206;13.316;2023-04-03T11:51:43;4.90;99.90
10660;DHT22;5378;53.206;13.316;2023-04-03T11:54:46;4.70;99.90
10660;DHT22;5378;53.206;13.316;2023-04-03T11:57:46;4.50;99.90
10660;DHT22;5378;53.206;13.316;2023-04-03T12:00:49;4.50;99.90
10660;DHT22;5378;53.206;13.316;2023-04-03T12:06:59;4.50;99.90
10660;DHT22;5378;53.206;13.316;2023-04-03T12:10:14;4.50;99.90
10660;DHT22;5378;53.206;13.316;2023-04-03T12:13:15;4.50;99.90
10660;DHT22;5378;53.206;13.316;2023-04-03T12:16:04;4.50;99.90
10660;DHT22;5378;53.206;13.316;2023-04-03T12:18:57;4.60;99.90
10660;DHT22;5378;53.206;13.316;2023-04-03T12:22:15;4.60;99.90
10660;DHT22;5378;53.206;13.316;2023-04-03T12:25:46;4.70;99.90
10660;DHT22;5378;53.206;13.316;2023-04-03T12:28:37;4.70;99.90
10660;DHT22;5378;53.206;13.316;2023-04-03T12:31:36;4.40;99.90
10660;DHT22;5378;53.206;13.316;2023-04-03T12:34:43;4.40;99.90
10660;DHT22;5378;53.206;13.316;2023-04-03T12:37:51;4.30;99.90
10660;DHT22;5378;53.206;13.316;2023-04-03T12:40:47;4.30;99.90
10660;DHT22;5378;53.206;13.316;2023-04-03T12:43:47;4.40;99.90
10660;DHT22;5378;53.206;13.316;2023-04-03T12:46:39;4.40;99.90
10660;DHT22;5378;53.206;13.316;2023-04-03T12:49:38;4.50;99.90
10660;DHT22;5378;53.206;13.316;2023-04-03T12:52:32;4.60;99.90
10660;DHT22;5378;53.206;13.316;2023-04-03T12:55:22;4.60;99.90
10660;DHT22;5378;53.206;13.316;2023-04-03T12:58:22;4.70;99.90
10660;DHT22;5378;53.206;13.316;2023-04-03T13:01:12;4.70;99.90
10660;DHT22;5378;53.206;13.316;2023-04-03T13:03:59;4.70;99.90
10660;DHT22;5378;53.206;13.316;2023-04-03T13:06:47;4.90;99.90
10660;DHT22;5378;53.206;13.316;2023-04-03T13:09:34;4.70;99.90
10660;DHT22;5378;53.206;13.316;2023-04-03T13:12:20;4.60;99.90
10660;DHT22;5378;53.206;13.316;2023-04-03T13:15:15;4.50;99.90
10660;DHT22;5378;53.206;13.316;2023-04-03T13:18:03;4.20;99.90
10660;DHT22;5378;53.206;13.316;2023-04-03T13:20:51;4.30;99.90
10660;DHT22;5378;53.206;13.316;2023-04-03T13:23:47;4.50;99.90
10660;DHT22;5378;53.206;13.316;2023-04-03T13:26:39;4.50;99.90
10660;DHT22;5378;53.206;13.316;2023-04-03T13:29:34;4.60;99.90
10660;DHT22;5378;53.206;13.316;2023-04-03T13:32:23;4.80;99.90
10660;DHT22;5378;53.206;13.316;2023-04-03T13:35:29;4.90;99.90
10660;DHT22;5378;53.206;13.316;2023-04-03T13:38:23;5.20;99.90
10660;DHT22;5378;53.206;13.316;2023-04-03T13:41:26;5.00;99.90
10660;DHT22;5378;53.206;13.316;2023-04-03T13:44:32;4.90;99.90
10660;DHT22;5378;53.206;13.316;2023-04-03T13:47:23;4.80;99.90
10660;DHT22;5378;53.206;13.316;2023-04-03T13:50:18;4.80;99.90
10660;DHT22;5378;53.206;13.316;2023-04-03T13:53:11;4.80;99.90
10660;DHT22;5378;53.206;13.316;2023-04-03T13:56:06;4.80;99.90
10660;DHT22;5378;53.206;13.316;2023-04-03T13:59:06;4.80;99.90
10660;DHT22;5378;53.206;13.316;2023-04-03T14:02:18;4.80;99.90
10660;DHT22;5378;53.206;13.316;2023-04-03T14:05:11;4.80;99.90
10660;DHT22;5378;53.206;13.316;2023-04-03T14:07:59;4.80;99.90
10660;DHT22;5378;53.206;13.316;2023-04-03T14:10:48;4.80;99.90
10660;DHT22;5378;53.206;13.316;2023-04-03T14:13:37;4.90;99.90
10660;DHT22;5378;53.206;13.316;2023-04-03T14:16:28;4.90;99.90
10660;DHT22;5378;53.206;13.316;2023-04-03T14:19:20;5.10;99.90
10660;DHT22;5378;53.206;13.316;2023-04-03T14:22:14;4.90;99.90
10660;DHT22;5378;53.206;13.316;2023-04-03T14:25:02;5.00;99.90
10660;DHT22;5378;53.206;13.316;2023-04-03T14:27:53;4.80;99.90
10660;DHT22;5378;53.206;13.316;2023-04-03T14:30:40;4.70;99.90
10660;DHT22;5378;53.206;13.316;2023-04-03T14:33:27;4.70;99.90
10660;DHT22;5378;53.206;13.316;2023-04-03T14:36:20;4.70;99.90
10660;DHT22;5378;53.206;13.316;2023-04-03T14:39:11;4.90;99.90
10660;DHT22;5378;53.206;13.316;2023-04-03T14:42:02;4.90;99.90
10660;DHT22;5378;53.206;13.316;2023-04-03T14:44:50;4.90;99.90
10660;DHT22;5378;53.206;13.316;2023-04-03T14:47:42;4.80;99.90
10660;DHT22;5378;53.206;13.316;2023-04-03T14:50:30;4.90;99.90
10660;DHT22;5378;53.206;13.316;2023-04-03T14:53:17;4.80;99.90
10660;DHT22;5378;53.206;13.316;2023-04-03T14:56:14;4.70;99.90
10660;DHT22;5378;53.206;13.316;2023-04-03T14:59:04;4.60;99.90
10660;DHT22;5378;53.206;13.316;2023-04-03T15:01:55;4.60;99.90
10660;DHT22;5378;53.206;13.316;2023-04-03T15:04:42;4.60;99.90
10660;DHT22;5378;53.206;13.316;2023-04-03T15:07:31;4.40;99.90
10660;DHT22;5378;53.206;13.316;2023-04-03T15:10:21;4.20;99.90
10660;DHT22;5378;53.206;13.316;2023-04-03T15:13:12;4.20;99.90
10660;DHT22;5378;53.206;13.316;2023-04-03T15:15:59;4.20;99.90
10660;DHT22;5378;53.206;13.316;2023-04-03T15:18:47;4.30;99.90
10660;DHT22;5378;53.206;13.316;2023-04-03T15:21:34;4.20;99.90
10660;DHT22;5378;53.206;13.316;2023-04-03T15:24:21;4.30;99.90
10660;DHT22;5378;53.206;13.316;2023-04-03T15:27:09;4.30;99.90
10660;DHT22;5378;53.206;13.316;2023-04-03T15:29:58;4.30;99.90
10660;DHT22;5378;53.206;13.316;2023-04-03T15:32:46;4.00;99.90
10660;DHT22;5378;53.206;13.316;2023-04-03T15:35:33;3.90;99.90
10660;DHT22;5378;53.206;13.316;2023-04-03T15:38:20;4.00;99.90
10660;DHT22;5378;53.206;13.316;2023-04-03T15:41:07;3.80;99.90
10660;DHT22;5378;53.206;13.316;2023-04-03T15:43:54;3.70;99.90
10660;DHT22;5378;53.206;13.316;2023-04-03T15:46:42;3.70;99.90
10660;DHT22;5378;53.206;13.316;2023-04-03T15:49:31;3.70;99.90
10660;DHT22;5378;53.206;13.316;2023-04-03T15:52:19;3.80;99.90
10660;DHT22;5378;53.206;13.316;2023-04-03T15:55:06;3.60;99.90
10660;DHT22;5378;53.206;13.316;2023-04-03T15:57:53;3.50;99.90
10660;DHT22;5378;53.206;13.316;2023-04-03T16:00:41;3.50;99.90
10660;DHT22;5378;53.206;13.316;2023-04-03T16:03:29;3.30;99.90
10660;DHT22;5378;53.206;13.316;2023-04-03T16:06:18;3.30;99.90
10660;DHT22;5378;53.206;13.316;2023-04-03T16:09:06;3.20;99.90
10660;DHT22;5378;53.206;13.316;2023-04-03T16:11:53;3.20;99.90
10660;DHT22;5378;53.206;13.316;2023-04-03T16:14:42;3.20;99.90
10660;DHT22;5378;53.206;13.316;2023-04-03T16:17:29;3.20;99.90
10660;DHT22;5378;53.206;13.316;2023-04-03T16:20:18;3.20;99.90
10660;DHT22;5378;53.206;13.316;2023-04-03T16:23:06;3.10;99.90
10660;DHT22;5378;53.206;13.316;2023-04-03T16:25:53;3.00;99.90
10660;DHT22;5378;53.206;13.316;2023-04-03T16:28:40;3.10;99.90
10660;DHT22;5378;53.206;13.316;2023-04-03T16:31:28;3.20;99.90
10660;DHT22;5378;53.206;13.316;2023-04-03T16:34:15;3.30;99.90
10660;DHT22;5378;53.206;13.316;2023-04-03T16:37:03;3.40;99.90
10660;DHT22;5378;53.206;13.316;2023-04-03T16:39:51;3.40;99.90
10660;DHT22;5378;53.206;13.316;2023-04-03T16:42:38;3.60;99.90
10660;DHT22;5378;53.206;13.316;2023-04-03T16:45:26;3.90;99.90
10660;DHT22;5378;53.206;13.316;2023-04-03T16:48:13;3.90;99.90
10660;DHT22;5378;53.206;13.316;2023-04-03T16:51:00;3.80;99.90
10660;DHT22;5378;53.206;13.316;2023-04-03T16:53:48;3.80;99.90
10660;DHT22;5378;53.206;13.316;2023-04-03T16:56:35;3.70;99.90
10660;DHT22;5378;53.206;13.316;2023-04-03T16:59:23;3.80;99.90
10660;DHT22;5378;53.206;13.316;2023-04-03T17:02:10;3.70;99.90
10660;DHT22;5378;53.206;13.316;2023-04-03T17:04:58;3.70;99.90
10660;DHT22;5378;53.206;13.316;2023-04-03T17:07:45;3.80;99.90
10660;DHT22;5378;53.206;13.316;2023-04-03T17:10:33;3.70;99.90
10660;DHT22;5378;53.206;13.316;2023-04-03T17:13:21;3.60;99.90
10660;DHT22;5378;53.206;13.316;2023-04-03T17:16:11;3.50;99.90
10660;DHT22;5378;53.206;13.316;2023-04-03T17:18:59;3.60;99.90
10660;DHT22;5378;53.206;13.316;2023-04-03T17:21:46;3.60;99.90
10660;DHT22;5378;53.206;13.316;2023-04-03T17:24:33;3.40;99.90
10660;DHT22;5378;53.206;13.316;2023-04-03T17:27:22;3.30;99.90
10660;DHT22;5378;53.206;13.316;2023-04-03T17:30:10;3.20;99.90
10660;DHT22;5378;53.206;13.316;2023-04-03T17:32:57;3.20;99.90
10660;DHT22;5378;53.206;13.316;2023-04-03T17:35:44;3.20;99.90
10660;DHT22;5378;53.206;13.316;2023-04-03T17:38:31;3.20;99.90
10660;DHT22;5378;53.206;13.316;2023-04-03T17:41:19;3.10;99.90
10660;DHT22;5378;53.206;13.316;2023-04-03T17:44:08;3.20;99.90
10660;DHT22;5378;53.206;13.316;2023-04-03T17:46:55;3.10;99.90
10660;DHT22;5378;53.206;13.316;2023-04-03T17:49:42;2.90;99.90
10660;DHT22;5378;53.206;13.316;2023-04-03T17:52:29;2.90;99.90
10660;DHT22;5378;53.206;13.316;2023-04-03T17:55:16;2.90;99.90
10660;DHT22;5378;53.206;13.316;2023-04-03T17:58:03;2.80;99.90
10660;DHT22;5378;53.206;13.316;2023-04-03T18:00:52;2.80;99.90
10660;DHT22;5378;53.206;13.316;2023-04-03T18:03:40;2.70;99.90
10660;DHT22;5378;53.206;13.316;2023-04-03T18:06:30;2.60;99.90
10660;DHT22;5378;53.206;13.316;2023-04-03T18:09:19;2.50;99.90
10660;DHT22;5378;53.206;13.316;2023-04-03T18:12:08;2.50;99.90
10660;DHT22;5378;53.206;13.316;2023-04-03T18:14:57;2.50;99.90
10660;DHT22;5378;53.206;13.316;2023-04-03T18:17:46;2.50;99.90
10660;DHT22;5378;53.206;13.316;2023-04-03T18:20:35;2.50;99.90
10660;DHT22;5378;53.206;13.316;2023-04-03T18:23:23;2.50;99.90
10660;DHT22;5378;53.206;13.316;2023-04-03T18:26:12;2.70;99.90
10660;DHT22;5378;53.206;13.316;2023-04-03T18:29:02;2.50;99.90
10660;DHT22;5378;53.206;13.316;2023-04-03T18:31:52;2.60;99.90
10660;DHT22;5378;53.206;13.316;2023-04-03T18:34:41;2.60;99.90